createdAt,value
2019-05-03T00:01:52.784Z,12.31
2019-05-03T00:06:57.289Z,12.07
2019-05-03T00:12:01.955Z,12.46
2019-05-03T00:17:07.511Z,12.28
2019-05-03T00:22:12.383Z,12.56
2019-05-03T00:27:16.999Z,12.33
2019-05-03T00:32:23.088Z,12.35
2019-05-03T00:37:29.084Z,12.32
2019-05-03T00:42:33.487Z,12.48
2019-05-03T00:47:37.874Z,12.37
2019-05-03T00:52:42.409Z,12.42
2019-05-03T00:57:46.702Z,12.26
2019-05-03T01:02:51.756Z,12.18
2019-05-03T01:07:56.575Z,12.48
2019-05-03T01:13:01.655Z,12.27
2019-05-03T01:18:07.792Z,12.43
2019-05-03T01:23:12.474Z,12.31
2019-05-03T01:28:17.912Z,12.38
2019-05-03T01:33:22.719Z,12.32
2019-05-03T01:38:27.224Z,12.30
2019-05-03T01:43:31.895Z,12.32
2019-05-03T01:48:37.971Z,12.24
2019-05-03T01:53:42.345Z,12.28
2019-05-03T01:58:46.745Z,12.19
2019-05-03T02:04:09.250Z,12.29
2019-05-03T02:09:44.198Z,12.25
2019-05-03T02:14:48.549Z,12.13
2019-05-03T02:19:52.922Z,12.16
2019-05-03T02:24:57.375Z,12.37
2019-05-03T02:30:03.094Z,12.10
2019-05-03T02:35:08.979Z,12.15
2019-05-03T02:40:13.953Z,12.19
2019-05-03T02:45:20.224Z,11.98
2019-05-03T02:50:26.033Z,11.27
2019-05-03T02:55:30.519Z,11.27
2019-05-03T03:01:00.405Z,10.86
2019-05-03T03:06:07.008Z,10.91
2019-05-03T03:11:11.550Z,10.96
2019-05-03T03:16:20.492Z,11.26
2019-05-03T03:21:26.040Z,11.02
2019-05-03T03:26:39.331Z,11.26
2019-05-03T03:31:58.538Z,10.88
2019-05-03T03:37:06.467Z,10.69
2019-05-03T03:42:10.395Z,10.63
2019-05-03T03:47:16.603Z,10.46
2019-05-03T03:52:25.306Z,10.56
2019-05-03T03:57:29.354Z,10.44
2019-05-03T04:02:35.466Z,10.45
2019-05-03T04:07:40.059Z,10.51
2019-05-03T04:12:45.837Z,10.41
2019-05-03T04:17:51.891Z,10.26
2019-05-03T04:22:56.432Z,10.26
2019-05-03T04:28:00.844Z,10.45
2019-05-03T04:33:06.164Z,10.13
2019-05-03T04:38:11.776Z,9.75
2019-05-03T04:43:16.691Z,10.08
2019-05-03T04:48:21.153Z,10.18
2019-05-03T04:53:26.099Z,10.04
2019-05-03T04:58:30.501Z,10.33
2019-05-03T05:03:36.201Z,10.52
2019-05-03T05:08:40.850Z,10.30
2019-05-03T05:13:45.717Z,10.54
2019-05-03T05:18:51.970Z,10.41
2019-05-03T05:23:58.032Z,10.05
2019-05-03T05:29:14.616Z,10.26
2019-05-03T05:34:19.329Z,10.43
2019-05-03T05:39:24.464Z,10.19
2019-05-03T05:44:29.037Z,10.57
2019-05-03T05:49:40.931Z,10.30
2019-05-03T05:54:46.938Z,10.40
2019-05-03T05:59:59.937Z,10.21
2019-05-03T06:05:06.131Z,10.29
2019-05-03T06:10:18.488Z,9.96
2019-05-03T06:15:42.400Z,10.03
2019-05-03T06:21:04.626Z,10.06
2019-05-03T06:26:15.649Z,10.04
2019-05-03T06:31:27.787Z,10.09
2019-05-03T06:36:32.168Z,10.21
2019-05-03T06:41:37.656Z,10.09
2019-05-03T06:46:46.401Z,10.42
2019-05-03T06:51:51.007Z,10.78
2019-05-03T06:56:55.607Z,10.63
2019-05-03T07:02:07.889Z,10.21
2019-05-03T07:07:16.453Z,10.90
2019-05-03T07:12:20.834Z,11.03
2019-05-03T07:17:25.264Z,10.72
2019-05-03T07:22:29.614Z,10.48
2019-05-03T07:27:34.956Z,10.31
2019-05-03T07:32:41.113Z,10.30
2019-05-03T07:37:45.558Z,10.30
2019-05-03T07:42:49.966Z,10.77
2019-05-03T07:47:55.816Z,10.62
2019-05-03T07:53:01.420Z,10.51
2019-05-03T07:58:10.425Z,10.59
2019-05-03T08:03:15.507Z,11.35
2019-05-03T08:08:19.985Z,10.50
2019-05-03T08:13:25.289Z,10.48
2019-05-03T08:18:29.972Z,10.41
2019-05-03T08:23:35.256Z,10.58
2019-05-03T08:28:41.099Z,10.68
2019-05-03T08:33:49.790Z,10.49
2019-05-03T08:38:56.304Z,11.00
2019-05-03T08:44:00.405Z,10.67
2019-05-03T08:49:05.287Z,11.64
2019-05-03T08:54:09.748Z,10.73
2019-05-03T08:59:26.768Z,11.08
2019-05-03T09:04:33.518Z,10.76
2019-05-03T09:09:27.908Z,10.32
2019-05-03T09:14:48.476Z,10.71
2019-05-03T09:19:54.733Z,11.33
2019-05-03T09:24:58.711Z,11.29
2019-05-03T09:30:05.069Z,11.45
2019-05-03T09:35:12.391Z,11.11
2019-05-03T09:40:16.849Z,11.19
2019-05-03T09:45:21.287Z,11.62
2019-05-03T09:50:25.823Z,10.61
2019-05-03T09:55:40.968Z,11.89
2019-05-03T10:00:45.942Z,11.40
2019-05-03T10:05:50.309Z,11.34
2019-05-03T10:11:15.539Z,11.62
2019-05-03T10:16:20.484Z,12.00
2019-05-03T10:21:26.541Z,12.36
2019-05-03T10:26:30.888Z,12.02
2019-05-03T10:31:54.569Z,11.95
2019-05-03T10:36:59.089Z,12.22
2019-05-03T10:42:04.771Z,12.09
2019-05-03T10:47:09.360Z,12.62
2019-05-03T10:52:15.039Z,11.93
2019-05-03T10:57:24.821Z,11.83
2019-05-03T11:02:30.946Z,12.37
2019-05-03T11:07:35.316Z,12.47
2019-05-03T11:12:39.678Z,12.37
2019-05-03T11:17:45.486Z,11.44
2019-05-03T11:22:50.009Z,12.27
2019-05-03T11:27:56.211Z,11.28
2019-05-03T11:33:02.234Z,11.62
2019-05-03T11:38:15.522Z,11.90
2019-05-03T11:43:21.995Z,12.05
2019-05-03T11:48:26.625Z,12.49
2019-05-03T11:53:31.081Z,12.27
2019-05-03T11:58:35.438Z,12.19
2019-05-03T12:03:41.448Z,12.49
2019-05-03T12:08:45.781Z,12.53
2019-05-03T12:14:02.389Z,12.10
2019-05-03T12:19:13.256Z,12.24
2019-05-03T12:24:07.214Z,12.27
2019-05-03T12:29:11.982Z,12.13
2019-05-03T12:34:16.382Z,12.19
2019-05-03T12:39:26.748Z,12.83
2019-05-03T12:44:26.969Z,12.62
2019-05-03T12:49:31.327Z,12.79
2019-05-03T12:54:36.649Z,12.72
2019-05-03T12:59:51.249Z,12.75
2019-05-03T13:04:55.620Z,12.85
2019-05-03T13:10:00.017Z,13.08
2019-05-03T13:15:08.498Z,12.87
2019-05-03T13:20:14.996Z,12.54
2019-05-03T13:25:19.402Z,13.03
2019-05-03T13:30:25.068Z,12.96
2019-05-03T13:35:29.780Z,12.82
2019-05-03T13:40:35.938Z,12.82
2019-05-03T13:45:40.525Z,13.05
2019-05-03T13:50:44.887Z,13.44
2019-05-03T13:55:49.250Z,12.88
2019-05-03T14:00:54.966Z,13.63
2019-05-03T14:06:00.639Z,13.51
2019-05-03T14:11:05.491Z,13.20
2019-05-03T14:16:10.898Z,12.82
2019-05-03T14:21:17.048Z,12.96
2019-05-03T14:26:21.511Z,12.46
2019-05-03T14:31:25.863Z,12.94
2019-05-03T14:36:30.207Z,12.77
2019-05-03T14:41:34.614Z,12.78
2019-05-03T14:46:39.062Z,12.72
2019-05-03T14:51:45.408Z,12.70
2019-05-03T14:56:51.129Z,13.20
2019-05-03T15:01:57.120Z,12.59
2019-05-03T15:07:01.467Z,13.90
2019-05-03T15:12:06.015Z,13.31
2019-05-03T15:17:10.426Z,13.30
2019-05-03T15:22:14.862Z,12.81
2019-05-03T15:27:20.529Z,12.69
2019-05-03T15:32:24.916Z,12.52
2019-05-03T15:37:29.321Z,12.28
2019-05-03T15:42:34.493Z,12.16
2019-05-03T15:47:42.905Z,12.22
2019-05-03T15:52:47.259Z,12.47
2019-05-03T15:57:51.640Z,12.56
2019-05-03T16:03:07.488Z,12.63
2019-05-03T16:08:02.126Z,12.81
2019-05-03T16:13:06.883Z,13.04
2019-05-03T16:18:11.262Z,12.51
2019-05-03T16:23:15.721Z,12.28
2019-05-03T16:28:24.905Z,12.04
2019-05-03T16:33:29.357Z,12.64
2019-05-03T16:38:35.430Z,12.46
2019-05-03T16:43:40.006Z,12.36
2019-05-03T16:48:44.911Z,12.14
2019-05-03T16:53:49.391Z,12.19
2019-05-03T16:58:54.997Z,12.32
2019-05-03T17:04:01.125Z,12.32
2019-05-03T17:09:10.940Z,12.07
2019-05-03T17:14:16.937Z,12.18
2019-05-03T17:19:21.291Z,12.09
2019-05-03T17:24:25.832Z,12.03
2019-05-03T17:29:30.208Z,11.89
2019-05-03T17:34:34.808Z,11.99
2019-05-03T17:39:57.365Z,11.93
2019-05-03T17:45:01.994Z,11.79
2019-05-03T17:50:07.179Z,11.78
2019-05-03T17:55:21.953Z,11.67
2019-05-03T18:00:30.711Z,11.72
2019-05-03T18:05:44.823Z,11.64
2019-05-03T18:10:55.085Z,11.56
2019-05-03T18:15:59.485Z,11.40
2019-05-03T18:21:04.784Z,11.45
2019-05-03T18:26:09.409Z,11.44
2019-05-03T18:31:14.634Z,11.47
2019-05-03T18:36:19.073Z,11.26
2019-05-03T18:41:25.241Z,11.13
2019-05-03T18:46:31.125Z,10.96
2019-05-03T18:51:36.120Z,10.89
2019-05-03T18:56:40.502Z,10.81
2019-05-03T19:01:45.206Z,10.89
2019-05-03T19:07:01.999Z,10.94
2019-05-03T19:11:58.620Z,10.89
2019-05-03T19:17:07.339Z,10.89
2019-05-03T19:22:11.859Z,10.87
2019-05-03T19:27:16.236Z,10.72
2019-05-03T19:32:20.617Z,10.72
2019-05-03T19:37:25.340Z,10.90
2019-05-03T19:42:29.787Z,10.79
2019-05-03T19:47:35.323Z,10.82
2019-05-03T19:52:57.379Z,10.70
2019-05-03T19:58:01.765Z,10.64
2019-05-03T20:03:11.280Z,10.61
2019-05-03T20:08:24.657Z,10.68
2019-05-03T20:13:34.644Z,10.66
2019-05-03T20:18:35.660Z,10.56
2019-05-03T20:23:40.773Z,10.35
2019-05-03T20:28:45.290Z,10.51
2019-05-03T20:33:49.695Z,10.34
2019-05-03T20:38:55.034Z,10.42
2019-05-03T20:44:05.359Z,10.20
2019-05-03T20:49:12.620Z,10.58
2019-05-03T20:54:16.987Z,10.22
2019-05-03T20:59:21.346Z,10.46
2019-05-03T21:04:25.734Z,10.38
2019-05-03T21:09:30.102Z,10.13
2019-05-03T21:14:35.066Z,10.04
2019-05-03T21:19:41.257Z,10.55
2019-05-03T21:24:47.239Z,10.46
2019-05-03T21:29:54.837Z,10.57
2019-05-03T21:34:58.312Z,9.82
2019-05-03T21:40:02.665Z,10.41
2019-05-03T21:45:08.147Z,10.33
2019-05-03T21:50:14.734Z,10.10
2019-05-03T21:55:19.111Z,9.87
2019-05-03T22:00:25.422Z,9.71
2019-05-03T22:05:33.062Z,9.85
2019-05-03T22:10:37.507Z,9.41
2019-05-03T22:15:43.510Z,9.62
2019-05-03T22:20:50.634Z,9.54
2019-05-03T22:25:56.916Z,9.69
2019-05-03T22:31:01.219Z,9.64
2019-05-03T22:36:08.824Z,9.58
2019-05-03T22:41:12.526Z,9.72
2019-05-03T22:46:18.791Z,9.72
2019-05-03T22:51:24.444Z,9.58
2019-05-03T22:56:29.022Z,9.66
2019-05-03T23:01:35.250Z,9.55
2019-05-03T23:06:39.466Z,9.48
2019-05-03T23:11:44.743Z,9.67
2019-05-03T23:16:49.413Z,9.61
2019-05-03T23:21:55.502Z,9.64
2019-05-03T23:27:00.042Z,9.48
2019-05-03T23:32:04.824Z,9.68
2019-05-03T23:37:09.356Z,9.58
2019-05-03T23:42:15.503Z,9.43
2019-05-03T23:47:25.221Z,9.66
2019-05-03T23:52:32.410Z,9.53
2019-05-03T23:57:36.754Z,9.52
